ニューヨーク/JFK の空港の天気 - METARとTAF

ジョン・F・ケネディ国際空港 ( KJFK / JFK ) - アメリカ ニューヨーク州ニューヨーク
飛行場実況気象(Metar)
観測時間04/19 13:19 EDT (04/19 17:19 UTC)
風向・風速北北西 3m/s
視程10km以上
天気現象弱い雨
全天の8割程度の雲 雲底高度 490m
全天を覆う雲 雲底高度 1160m
気温6.7℃
湿度85%
気圧1007hPa
METARKJFK 191719Z 34006KT 7SM -RA BKN016 OVC038 07/04 A2973 RMK AO2 RAB01 P0000 T00670044 $
過去の天気等 Google飛行場航空写真 Wunderground天気予報

過去48時間のMETAR

飛行場予報(TAF)
発表時間: 4/19 11:35 EDT (4/19 15:35 UTC)
予報対象時間: 19日12時 EDT ~ 20日14時 EDT
風向・風速北北西 6m/s
視程10km以上
天気現象周辺でしゅう雨
全天の4割程度の雲 雲底高度 370m
全天の8割程度の雲 雲底高度 910m
19日13時 EDT から
風向・風速北北西 6m/s
視程6,440m
天気現象弱いしゅう雨 もや
全天の4割程度の雲 雲底高度 240m
全天を覆う雲 雲底高度 460m
19日16時 EDT から
風向・風速北北西 7m/s 瞬間風速 11m/s
視程10km以上
天気現象弱いしゅう雨
全天の8割程度の雲 雲底高度 760m
19日18時 EDT から
風向・風速北西 10m/s 瞬間風速 14m/s
視程10km以上
全天の8割程度の雲 雲底高度 1,520m
20日2時 EDT から
風向・風速北西 8m/s 瞬間風速 12m/s
視程10km以上
全天の4割程度の雲 雲底高度 1,220m
KJFK 191535Z 1916/2018 33012KT P6SM VCSH SCT012 BKN030
FM191700 33011KT 4SM -SHRA BR SCT008 OVC015
FM192000 33013G21KT 6SM -SHRA BKN025
FM192200 31020G28KT P6SM BKN050
FM200600 31016G24KT P6SM SCT040